Kostroma Sokerkino Airport


Codes: UUBA/KMW
Name: Kostroma Sokerkino Airport
City: Kostroma
Country: Russia
Elevation: 446 ft.
Website:
Wikipedia:

Photos at Kostroma Sokerkino Airport


   Photos courtesy of SpottingLog. You can add your own sightings and photos by signing up for a free trial today.



No photos found.

Weather at Kostroma Sokerkino Airport


Time (UTC)DescriptionTempratureWindCloud coverageVisibilityPressureHumidity
16-Jun-2024 00:00Broken Clouds15°C4 mph, N60%10000m1016hPa87%
16-Jun-2024 03:00Broken Clouds15°C4 mph, NE73%10000m1016hPa88%
16-Jun-2024 06:00Overcast Clouds18°C4 mph, NE86%10000m1017hPa78%
16-Jun-2024 09:00Broken Clouds23°C4 mph, NE81%10000m1018hPa57%
16-Jun-2024 12:00Broken Clouds24°C2 mph, NE63%10000m1018hPa55%
16-Jun-2024 15:00Light Rain22°C4 mph, NE93%10000m1018hPa75%
16-Jun-2024 18:00Overcast Clouds18°C7 mph, NE95%10000m1017hPa79%
16-Jun-2024 21:00Overcast Clouds16°C7 mph, E100%10000m1018hPa82%
17-Jun-2024 00:00Overcast Clouds16°C7 mph, E100%10000m1018hPa87%
17-Jun-2024 03:00Overcast Clouds17°C11 mph, E100%10000m1017hPa79%
17-Jun-2024 06:00Broken Clouds22°C13 mph, E76%10000m1016hPa62%
17-Jun-2024 09:00Overcast Clouds20°C13 mph, E97%10000m1017hPa67%
17-Jun-2024 12:00Light Rain20°C11 mph, SE99%10000m1016hPa80%
17-Jun-2024 15:00Light Rain20°C11 mph, E100%10000m1014hPa86%
17-Jun-2024 18:00Light Rain18°C11 mph, E100%10000m1013hPa92%
17-Jun-2024 21:00Light Rain18°C11 mph, E100%10000m1012hPa98%
18-Jun-2024 00:00Light Rain18°C9 mph, SE100%1702m1011hPa98%
18-Jun-2024 03:00Light Rain18°C11 mph, SE100%10000m1010hPa95%
18-Jun-2024 06:00Light Rain20°C11 mph, SE99%10000m1009hPa92%
18-Jun-2024 09:00Light Rain24°C13 mph, S91%10000m1007hPa80%
18-Jun-2024 12:00Moderate Rain23°C13 mph, S89%10000m1007hPa84%
18-Jun-2024 15:00Moderate Rain21°C13 mph, SW94%10000m1006hPa89%
18-Jun-2024 18:00Light Rain19°C11 mph, SW72%10000m1006hPa96%
18-Jun-2024 21:00Light Rain17°C11 mph, W81%10000m1008hPa96%
19-Jun-2024 00:00Overcast Clouds15°C11 mph, NW91%10000m1009hPa93%
19-Jun-2024 03:00Broken Clouds15°C9 mph, W77%10000m1010hPa95%
19-Jun-2024 06:00Broken Clouds19°C9 mph, W67%10000m1011hPa74%
19-Jun-2024 09:00Clear Sky22°C11 mph, W1%10000m1011hPa59%
19-Jun-2024 12:00Clear Sky24°C9 mph, W4%10000m1010hPa57%
19-Jun-2024 15:00Clear Sky24°C7 mph, SW10%10000m1009hPa68%
19-Jun-2024 18:00Few Clouds19°C7 mph, SE23%10000m1007hPa81%
19-Jun-2024 21:00Overcast Clouds19°C11 mph, S100%10000m1005hPa73%
20-Jun-2024 00:00Broken Clouds16°C9 mph, S82%10000m1003hPa91%
20-Jun-2024 03:00Scattered Clouds18°C11 mph, S34%10000m1001hPa89%
20-Jun-2024 06:00Light Rain21°C13 mph, SW21%10000m1000hPa85%
20-Jun-2024 09:00Light Rain20°C16 mph, SW80%10000m1000hPa88%
20-Jun-2024 12:00Light Rain18°C18 mph, W89%10000m1001hPa72%
20-Jun-2024 15:00Overcast Clouds16°C9 mph, NW100%10000m1001hPa75%
20-Jun-2024 18:00Overcast Clouds14°C7 mph, W100%10000m1001hPa82%
20-Jun-2024 21:00Broken Clouds11°C7 mph, W69%10000m1001hPa92%